sensor_id;sensor_type;location;lat;lon;timestamp;P1;durP1;ratioP1;P2;durP2;ratioP2
79330;SDS011;68797;49.782;19.054;2023-09-30T00:01:27;12.13;;;7.93;;
79330;SDS011;68797;49.782;19.054;2023-09-30T00:03:53;15.18;;;8.95;;
79330;SDS011;68797;49.782;19.054;2023-09-30T00:06:19;11.60;;;8.35;;
79330;SDS011;68797;49.782;19.054;2023-09-30T00:08:46;14.70;;;8.60;;
79330;SDS011;68797;49.782;19.054;2023-09-30T00:11:15;15.90;;;8.20;;
79330;SDS011;68797;49.782;19.054;2023-09-30T00:13:46;12.40;;;8.45;;
79330;SDS011;68797;49.782;19.054;2023-09-30T00:16:15;13.13;;;8.63;;
79330;SDS011;68797;49.782;19.054;2023-09-30T00:18:43;13.20;;;8.02;;
79330;SDS011;68797;49.782;19.054;2023-09-30T00:21:12;14.13;;;8.20;;
79330;SDS011;68797;49.782;19.054;2023-09-30T00:23:38;12.07;;;8.23;;
79330;SDS011;68797;49.782;19.054;2023-09-30T00:26:04;14.15;;;8.75;;
79330;SDS011;68797;49.782;19.054;2023-09-30T00:28:31;11.38;;;7.57;;
79330;SDS011;68797;49.782;19.054;2023-09-30T00:30:57;11.15;;;8.23;;
79330;SDS011;68797;49.782;19.054;2023-09-30T00:33:23;14.13;;;8.65;;
79330;SDS011;68797;49.782;19.054;2023-09-30T00:35:51;14.30;;;7.78;;
79330;SDS011;68797;49.782;19.054;2023-09-30T00:38:17;10.93;;;7.40;;
79330;SDS011;68797;49.782;19.054;2023-09-30T00:40:48;11.70;;;7.10;;
79330;SDS011;68797;49.782;19.054;2023-09-30T00:43:18;10.00;;;7.32;;
79330;SDS011;68797;49.782;19.054;2023-09-30T00:45:46;12.65;;;6.85;;
79330;SDS011;68797;49.782;19.054;2023-09-30T00:48:15;9.88;;;7.75;;
79330;SDS011;68797;49.782;19.054;2023-09-30T00:50:42;11.30;;;8.20;;
79330;SDS011;68797;49.782;19.054;2023-09-30T00:53:09;11.63;;;7.30;;
79330;SDS011;68797;49.782;19.054;2023-09-30T00:58:02;10.60;;;6.95;;
79330;SDS011;68797;49.782;19.054;2023-09-30T01:00:29;11.05;;;7.15;;
79330;SDS011;68797;49.782;19.054;2023-09-30T01:02:55;12.70;;;7.35;;
79330;SDS011;68797;49.782;19.054;2023-09-30T01:05:22;13.23;;;7.65;;
79330;SDS011;68797;49.782;19.054;2023-09-30T01:07:49;15.85;;;9.48;;
79330;SDS011;68797;49.782;19.054;2023-09-30T01:10:15;10.90;;;7.35;;
79330;SDS011;68797;49.782;19.054;2023-09-30T01:12:41;9.55;;;7.25;;
79330;SDS011;68797;49.782;19.054;2023-09-30T01:15:08;14.88;;;8.10;;
79330;SDS011;68797;49.782;19.054;2023-09-30T01:17:36;13.80;;;7.78;;
79330;SDS011;68797;49.782;19.054;2023-09-30T01:20:02;13.80;;;7.82;;
79330;SDS011;68797;49.782;19.054;2023-09-30T01:22:34;9.48;;;6.88;;
79330;SDS011;68797;49.782;19.054;2023-09-30T01:25:05;12.45;;;7.40;;
79330;SDS011;68797;49.782;19.054;2023-09-30T01:27:32;11.07;;;7.63;;
79330;SDS011;68797;49.782;19.054;2023-09-30T01:29:59;10.00;;;7.07;;
79330;SDS011;68797;49.782;19.054;2023-09-30T01:32:25;11.18;;;7.15;;
79330;SDS011;68797;49.782;19.054;2023-09-30T01:34:51;11.52;;;7.68;;
79330;SDS011;68797;49.782;19.054;2023-09-30T01:37:17;9.90;;;7.45;;
79330;SDS011;68797;49.782;19.054;2023-09-30T01:39:44;9.88;;;6.93;;
79330;SDS011;68797;49.782;19.054;2023-09-30T01:42:11;11.95;;;7.80;;
79330;SDS011;68797;49.782;19.054;2023-09-30T01:44:37;12.90;;;6.65;;
79330;SDS011;68797;49.782;19.054;2023-09-30T01:47:04;10.73;;;6.93;;
79330;SDS011;68797;49.782;19.054;2023-09-30T01:49:30;12.05;;;7.18;;
79330;SDS011;68797;49.782;19.054;2023-09-30T01:51:56;9.95;;;7.20;;
79330;SDS011;68797;49.782;19.054;2023-09-30T01:54:25;10.40;;;6.80;;
79330;SDS011;68797;49.782;19.054;2023-09-30T01:56:51;11.52;;;7.20;;
79330;SDS011;68797;49.782;19.054;2023-09-30T01:59:18;12.57;;;6.90;;
79330;SDS011;68797;49.782;19.054;2023-09-30T02:01:45;11.85;;;6.65;;
79330;SDS011;68797;49.782;19.054;2023-09-30T02:04:16;11.60;;;7.20;;
79330;SDS011;68797;49.782;19.054;2023-09-30T02:06:46;12.25;;;6.88;;
79330;SDS011;68797;49.782;19.054;2023-09-30T02:09:12;10.60;;;6.70;;
79330;SDS011;68797;49.782;19.054;2023-09-30T02:11:38;8.98;;;7.35;;
79330;SDS011;68797;49.782;19.054;2023-09-30T02:14:07;12.82;;;6.70;;
79330;SDS011;68797;49.782;19.054;2023-09-30T02:16:34;10.00;;;7.00;;
79330;SDS011;68797;49.782;19.054;2023-09-30T02:19:02;9.75;;;7.05;;
79330;SDS011;68797;49.782;19.054;2023-09-30T02:21:29;11.07;;;6.80;;
79330;SDS011;68797;49.782;19.054;2023-09-30T02:23:55;9.98;;;6.35;;
79330;SDS011;68797;49.782;19.054;2023-09-30T02:26:21;14.98;;;7.85;;
79330;SDS011;68797;49.782;19.054;2023-09-30T02:28:48;13.18;;;7.35;;
79330;SDS011;68797;49.782;19.054;2023-09-30T02:31:14;11.35;;;7.03;;
79330;SDS011;68797;49.782;19.054;2023-09-30T02:33:43;10.13;;;6.38;;
79330;SDS011;68797;49.782;19.054;2023-09-30T02:36:09;9.15;;;5.65;;
79330;SDS011;68797;49.782;19.054;2023-09-30T02:38:37;10.13;;;6.50;;
79330;SDS011;68797;49.782;19.054;2023-09-30T02:43:29;8.18;;;6.28;;
79330;SDS011;68797;49.782;19.054;2023-09-30T02:45:55;10.20;;;6.45;;
79330;SDS011;68797;49.782;19.054;2023-09-30T02:48:23;9.60;;;6.25;;
79330;SDS011;68797;49.782;19.054;2023-09-30T02:50:49;9.25;;;6.63;;
79330;SDS011;68797;49.782;19.054;2023-09-30T02:55:43;8.00;;;6.72;;
79330;SDS011;68797;49.782;19.054;2023-09-30T02:58:11;12.57;;;7.20;;
79330;SDS011;68797;49.782;19.054;2023-09-30T03:00:37;13.60;;;6.85;;
79330;SDS011;68797;49.782;19.054;2023-09-30T03:03:04;8.10;;;5.93;;
79330;SDS011;68797;49.782;19.054;2023-09-30T03:05:30;8.73;;;6.60;;
79330;SDS011;68797;49.782;19.054;2023-09-30T03:07:59;10.55;;;6.72;;
79330;SDS011;68797;49.782;19.054;2023-09-30T03:10:27;9.30;;;6.50;;
79330;SDS011;68797;49.782;19.054;2023-09-30T03:12:53;11.15;;;7.28;;
79330;SDS011;68797;49.782;19.054;2023-09-30T03:15:20;9.20;;;7.60;;
79330;SDS011;68797;49.782;19.054;2023-09-30T03:17:47;12.57;;;7.00;;
79330;SDS011;68797;49.782;19.054;2023-09-30T03:20:15;9.82;;;6.70;;
79330;SDS011;68797;49.782;19.054;2023-09-30T03:22:46;11.50;;;7.55;;
79330;SDS011;68797;49.782;19.054;2023-09-30T03:25:15;10.32;;;6.68;;
79330;SDS011;68797;49.782;19.054;2023-09-30T03:27:46;10.52;;;6.68;;
79330;SDS011;68797;49.782;19.054;2023-09-30T03:30:13;11.23;;;6.65;;
79330;SDS011;68797;49.782;19.054;2023-09-30T03:32:41;10.27;;;6.60;;
79330;SDS011;68797;49.782;19.054;2023-09-30T03:37:43;9.02;;;6.32;;
79330;SDS011;68797;49.782;19.054;2023-09-30T03:40:11;8.23;;;5.97;;
79330;SDS011;68797;49.782;19.054;2023-09-30T03:42:41;10.68;;;5.80;;
79330;SDS011;68797;49.782;19.054;2023-09-30T03:45:11;10.52;;;6.60;;
79330;SDS011;68797;49.782;19.054;2023-09-30T03:47:39;11.13;;;6.97;;
79330;SDS011;68797;49.782;19.054;2023-09-30T03:50:07;11.80;;;6.22;;
79330;SDS011;68797;49.782;19.054;2023-09-30T03:52:42;10.07;;;6.75;;
79330;SDS011;68797;49.782;19.054;2023-09-30T03:55:11;14.15;;;6.95;;
79330;SDS011;68797;49.782;19.054;2023-09-30T03:57:39;12.63;;;6.35;;
79330;SDS011;68797;49.782;19.054;2023-09-30T04:00:07;11.43;;;6.82;;
79330;SDS011;68797;49.782;19.054;2023-09-30T04:02:42;12.05;;;7.05;;
79330;SDS011;68797;49.782;19.054;2023-09-30T04:05:10;13.73;;;8.00;;
79330;SDS011;68797;49.782;19.054;2023-09-30T04:07:39;11.50;;;6.40;;
79330;SDS011;68797;49.782;19.054;2023-09-30T04:10:08;13.73;;;8.27;;
79330;SDS011;68797;49.782;19.054;2023-09-30T04:12:35;15.07;;;8.38;;
79330;SDS011;68797;49.782;19.054;2023-09-30T04:15:01;11.82;;;7.80;;
79330;SDS011;68797;49.782;19.054;2023-09-30T04:17:29;13.52;;;9.15;;
79330;SDS011;68797;49.782;19.054;2023-09-30T04:19:56;12.45;;;8.52;;
79330;SDS011;68797;49.782;19.054;2023-09-30T04:22:23;11.93;;;6.82;;
79330;SDS011;68797;49.782;19.054;2023-09-30T04:24:51;9.98;;;6.72;;
79330;SDS011;68797;49.782;19.054;2023-09-30T04:27:17;11.98;;;7.20;;
79330;SDS011;68797;49.782;19.054;2023-09-30T04:29:44;10.85;;;6.63;;
79330;SDS011;68797;49.782;19.054;2023-09-30T04:32:15;9.43;;;6.93;;
79330;SDS011;68797;49.782;19.054;2023-09-30T04:34:41;10.00;;;6.30;;
79330;SDS011;68797;49.782;19.054;2023-09-30T04:37:07;19.88;;;7.03;;
79330;SDS011;68797;49.782;19.054;2023-09-30T04:39:35;10.43;;;6.13;;
79330;SDS011;68797;49.782;19.054;2023-09-30T04:42:01;9.20;;;5.97;;
79330;SDS011;68797;49.782;19.054;2023-09-30T04:44:29;13.43;;;6.75;;
79330;SDS011;68797;49.782;19.054;2023-09-30T04:46:56;12.52;;;7.80;;
79330;SDS011;68797;49.782;19.054;2023-09-30T04:49:23;11.40;;;6.75;;
79330;SDS011;68797;49.782;19.054;2023-09-30T04:51:50;11.30;;;7.07;;
79330;SDS011;68797;49.782;19.054;2023-09-30T04:54:16;8.77;;;6.60;;
79330;SDS011;68797;49.782;19.054;2023-09-30T04:56:42;15.70;;;7.13;;
79330;SDS011;68797;49.782;19.054;2023-09-30T04:59:08;9.43;;;6.82;;
79330;SDS011;68797;49.782;19.054;2023-09-30T05:01:35;11.00;;;5.85;;
79330;SDS011;68797;49.782;19.054;2023-09-30T05:04:01;7.78;;;6.43;;
79330;SDS011;68797;49.782;19.054;2023-09-30T05:06:28;11.43;;;7.38;;
79330;SDS011;68797;49.782;19.054;2023-09-30T05:08:54;10.55;;;6.90;;
79330;SDS011;68797;49.782;19.054;2023-09-30T05:11:21;17.02;;;6.95;;
79330;SDS011;68797;49.782;19.054;2023-09-30T05:13:47;9.20;;;7.32;;
79330;SDS011;68797;49.782;19.054;2023-09-30T05:16:14;9.60;;;6.70;;
79330;SDS011;68797;49.782;19.054;2023-09-30T05:18:41;12.77;;;6.72;;
79330;SDS011;68797;49.782;19.054;2023-09-30T05:21:07;10.93;;;7.35;;
79330;SDS011;68797;49.782;19.054;2023-09-30T05:23:33;12.65;;;7.10;;
79330;SDS011;68797;49.782;19.054;2023-09-30T05:26:00;10.82;;;7.40;;
79330;SDS011;68797;49.782;19.054;2023-09-30T05:28:27;9.80;;;6.75;;
79330;SDS011;68797;49.782;19.054;2023-09-30T05:30:54;8.88;;;6.57;;
79330;SDS011;68797;49.782;19.054;2023-09-30T05:33:21;11.43;;;6.93;;
79330;SDS011;68797;49.782;19.054;2023-09-30T05:40:42;8.52;;;6.75;;
79330;SDS011;68797;49.782;19.054;2023-09-30T05:43:08;9.27;;;6.15;;
79330;SDS011;68797;49.782;19.054;2023-09-30T05:45:35;10.32;;;6.78;;
79330;SDS011;68797;49.782;19.054;2023-09-30T05:48:01;9.85;;;6.72;;
79330;SDS011;68797;49.782;19.054;2023-09-30T05:50:34;14.13;;;7.47;;
79330;SDS011;68797;49.782;19.054;2023-09-30T05:53:02;13.00;;;6.47;;
79330;SDS011;68797;49.782;19.054;2023-09-30T05:55:30;9.05;;;6.60;;
79330;SDS011;68797;49.782;19.054;2023-09-30T05:57:57;8.95;;;6.57;;
79330;SDS011;68797;49.782;19.054;2023-09-30T06:00:23;10.10;;;6.93;;
79330;SDS011;68797;49.782;19.054;2023-09-30T06:03:01;8.02;;;6.40;;
79330;SDS011;68797;49.782;19.054;2023-09-30T06:05:31;10.77;;;6.60;;
79330;SDS011;68797;49.782;19.054;2023-09-30T06:08:01;9.32;;;6.90;;
79330;SDS011;68797;49.782;19.054;2023-09-30T06:10:30;9.02;;;7.10;;
79330;SDS011;68797;49.782;19.054;2023-09-30T06:12:56;8.00;;;6.30;;
79330;SDS011;68797;49.782;19.054;2023-09-30T06:15:24;9.57;;;6.60;;
79330;SDS011;68797;49.782;19.054;2023-09-30T06:17:54;9.15;;;7.57;;
79330;SDS011;68797;49.782;19.054;2023-09-30T06:20:21;8.73;;;6.95;;
79330;SDS011;68797;49.782;19.054;2023-09-30T06:22:51;10.43;;;6.65;;
79330;SDS011;68797;49.782;19.054;2023-09-30T06:25:20;12.13;;;7.90;;
79330;SDS011;68797;49.782;19.054;2023-09-30T06:27:47;10.63;;;6.80;;
79330;SDS011;68797;49.782;19.054;2023-09-30T06:32:41;14.48;;;6.72;;
79330;SDS011;68797;49.782;19.054;2023-09-30T06:35:09;10.30;;;7.18;;
79330;SDS011;68797;49.782;19.054;2023-09-30T06:37:39;7.97;;;5.80;;
79330;SDS011;68797;49.782;19.054;2023-09-30T06:40:06;11.80;;;7.20;;
79330;SDS011;68797;49.782;19.054;2023-09-30T06:42:35;10.25;;;7.03;;
79330;SDS011;68797;49.782;19.054;2023-09-30T06:45:04;11.15;;;6.20;;
79330;SDS011;68797;49.782;19.054;2023-09-30T06:47:34;10.93;;;7.80;;
79330;SDS011;68797;49.782;19.054;2023-09-30T06:50:08;12.63;;;8.27;;
79330;SDS011;68797;49.782;19.054;2023-09-30T06:52:36;15.82;;;7.93;;
79330;SDS011;68797;49.782;19.054;2023-09-30T06:55:04;8.65;;;7.78;;
79330;SDS011;68797;49.782;19.054;2023-09-30T06:57:32;13.52;;;7.90;;
79330;SDS011;68797;49.782;19.054;2023-09-30T06:59:59;9.18;;;6.90;;
79330;SDS011;68797;49.782;19.054;2023-09-30T07:02:26;10.52;;;7.80;;
79330;SDS011;68797;49.782;19.054;2023-09-30T07:04:53;11.10;;;7.05;;
79330;SDS011;68797;49.782;19.054;2023-09-30T07:07:19;8.93;;;7.00;;
79330;SDS011;68797;49.782;19.054;2023-09-30T07:09:46;13.02;;;7.53;;
79330;SDS011;68797;49.782;19.054;2023-09-30T07:12:12;10.32;;;7.30;;
79330;SDS011;68797;49.782;19.054;2023-09-30T07:14:38;12.27;;;7.55;;
79330;SDS011;68797;49.782;19.054;2023-09-30T07:17:04;10.95;;;7.10;;
79330;SDS011;68797;49.782;19.054;2023-09-30T07:19:31;12.18;;;7.57;;
79330;SDS011;68797;49.782;19.054;2023-09-30T07:21:57;9.70;;;6.55;;
79330;SDS011;68797;49.782;19.054;2023-09-30T07:24:25;10.60;;;8.02;;
79330;SDS011;68797;49.782;19.054;2023-09-30T07:26:51;9.68;;;6.90;;
79330;SDS011;68797;49.782;19.054;2023-09-30T07:29:17;10.98;;;8.02;;
79330;SDS011;68797;49.782;19.054;2023-09-30T07:31:43;12.43;;;8.00;;
79330;SDS011;68797;49.782;19.054;2023-09-30T07:34:10;12.40;;;7.80;;
79330;SDS011;68797;49.782;19.054;2023-09-30T07:36:36;11.25;;;7.90;;
79330;SDS011;68797;49.782;19.054;2023-09-30T07:39:03;9.70;;;7.75;;
79330;SDS011;68797;49.782;19.054;2023-09-30T07:41:34;9.30;;;7.80;;
79330;SDS011;68797;49.782;19.054;2023-09-30T07:44:02;11.70;;;8.25;;
79330;SDS011;68797;49.782;19.054;2023-09-30T07:46:29;11.30;;;8.02;;
79330;SDS011;68797;49.782;19.054;2023-09-30T07:48:56;12.07;;;7.70;;
79330;SDS011;68797;49.782;19.054;2023-09-30T07:51:24;14.35;;;7.50;;
79330;SDS011;68797;49.782;19.054;2023-09-30T07:53:50;12.35;;;8.18;;
79330;SDS011;68797;49.782;19.054;2023-09-30T07:56:17;13.90;;;8.48;;
79330;SDS011;68797;49.782;19.054;2023-09-30T07:58:43;13.15;;;8.55;;
79330;SDS011;68797;49.782;19.054;2023-09-30T08:01:10;11.15;;;8.13;;
79330;SDS011;68797;49.782;19.054;2023-09-30T08:03:36;13.48;;;9.45;;
79330;SDS011;68797;49.782;19.054;2023-09-30T08:06:07;13.35;;;8.95;;
79330;SDS011;68797;49.782;19.054;2023-09-30T08:08:35;12.18;;;8.60;;
79330;SDS011;68797;49.782;19.054;2023-09-30T08:11:02;11.95;;;8.00;;
79330;SDS011;68797;49.782;19.054;2023-09-30T08:13:28;11.80;;;8.23;;
79330;SDS011;68797;49.782;19.054;2023-09-30T08:15:54;13.15;;;8.38;;
79330;SDS011;68797;49.782;19.054;2023-09-30T08:18:22;13.90;;;9.70;;
79330;SDS011;68797;49.782;19.054;2023-09-30T08:20:48;14.65;;;9.52;;
79330;SDS011;68797;49.782;19.054;2023-09-30T08:23:15;14.55;;;10.63;;
79330;SDS011;68797;49.782;19.054;2023-09-30T08:25:41;13.23;;;9.13;;
79330;SDS011;68797;49.782;19.054;2023-09-30T08:28:09;14.10;;;9.77;;
79330;SDS011;68797;49.782;19.054;2023-09-30T08:30:35;13.63;;;10.18;;
79330;SDS011;68797;49.782;19.054;2023-09-30T08:33:03;14.18;;;9.60;;
79330;SDS011;68797;49.782;19.054;2023-09-30T08:35:30;12.65;;;9.10;;
79330;SDS011;68797;49.782;19.054;2023-09-30T08:37:57;11.65;;;8.80;;
79330;SDS011;68797;49.782;19.054;2023-09-30T08:40:24;12.05;;;9.38;;
79330;SDS011;68797;49.782;19.054;2023-09-30T08:42:51;14.00;;;9.48;;
79330;SDS011;68797;49.782;19.054;2023-09-30T08:45:19;12.50;;;8.40;;
79330;SDS011;68797;49.782;19.054;2023-09-30T08:47:47;12.82;;;7.97;;
79330;SDS011;68797;49.782;19.054;2023-09-30T08:50:14;10.57;;;8.15;;
79330;SDS011;68797;49.782;19.054;2023-09-30T08:52:43;11.15;;;8.48;;
79330;SDS011;68797;49.782;19.054;2023-09-30T08:55:10;11.98;;;8.63;;
79330;SDS011;68797;49.782;19.054;2023-09-30T08:57:38;12.32;;;8.73;;
79330;SDS011;68797;49.782;19.054;2023-09-30T09:00:09;16.42;;;9.77;;
79330;SDS011;68797;49.782;19.054;2023-09-30T09:02:38;11.20;;;9.02;;
79330;SDS011;68797;49.782;19.054;2023-09-30T09:05:08;12.45;;;9.30;;
79330;SDS011;68797;49.782;19.054;2023-09-30T09:07:36;14.80;;;9.63;;
79330;SDS011;68797;49.782;19.054;2023-09-30T09:10:06;11.93;;;8.82;;
79330;SDS011;68797;49.782;19.054;2023-09-30T09:12:35;12.18;;;9.68;;
79330;SDS011;68797;49.782;19.054;2023-09-30T09:15:05;11.32;;;9.15;;
79330;SDS011;68797;49.782;19.054;2023-09-30T09:17:43;16.00;;;8.80;;
79330;SDS011;68797;49.782;19.054;2023-09-30T09:20:11;13.23;;;9.60;;
79330;SDS011;68797;49.782;19.054;2023-09-30T09:22:43;13.88;;;9.13;;
79330;SDS011;68797;49.782;19.054;2023-09-30T09:25:13;14.40;;;10.00;;
79330;SDS011;68797;49.782;19.054;2023-09-30T09:27:40;13.80;;;10.02;;
79330;SDS011;68797;49.782;19.054;2023-09-30T09:30:15;14.70;;;10.05;;
79330;SDS011;68797;49.782;19.054;2023-09-30T09:32:53;14.75;;;9.27;;
79330;SDS011;68797;49.782;19.054;2023-09-30T09:35:27;15.05;;;10.32;;
79330;SDS011;68797;49.782;19.054;2023-09-30T09:37:59;14.43;;;9.82;;
79330;SDS011;68797;49.782;19.054;2023-09-30T09:40:31;13.63;;;10.25;;
79330;SDS011;68797;49.782;19.054;2023-09-30T09:43:02;18.55;;;11.48;;
79330;SDS011;68797;49.782;19.054;2023-09-30T09:45:34;15.52;;;10.95;;
79330;SDS011;68797;49.782;19.054;2023-09-30T09:48:04;16.90;;;10.93;;
79330;SDS011;68797;49.782;19.054;2023-09-30T09:50:30;16.58;;;11.45;;
79330;SDS011;68797;49.782;19.054;2023-09-30T09:53:02;20.45;;;13.13;;
79330;SDS011;68797;49.782;19.054;2023-09-30T09:55:30;15.55;;;11.18;;
79330;SDS011;68797;49.782;19.054;2023-09-30T09:57:58;20.65;;;15.68;;
79330;SDS011;68797;49.782;19.054;2023-09-30T10:03:00;18.20;;;11.70;;
79330;SDS011;68797;49.782;19.054;2023-09-30T10:05:26;17.15;;;12.13;;
79330;SDS011;68797;49.782;19.054;2023-09-30T10:07:54;19.08;;;13.05;;
79330;SDS011;68797;49.782;19.054;2023-09-30T10:10:29;15.07;;;10.85;;
79330;SDS011;68797;49.782;19.054;2023-09-30T10:12:57;14.85;;;10.88;;
79330;SDS011;68797;49.782;19.054;2023-09-30T10:17:55;15.10;;;9.90;;
79330;SDS011;68797;49.782;19.054;2023-09-30T10:20:34;12.60;;;9.52;;
79330;SDS011;68797;49.782;19.054;2023-09-30T10:23:21;14.85;;;9.18;;
79330;SDS011;68797;49.782;19.054;2023-09-30T10:28:45;7.75;;;4.50;;
79330;SDS011;68797;49.782;19.054;2023-09-30T10:31:16;6.38;;;4.65;;
79330;SDS011;68797;49.782;19.054;2023-09-30T10:36:37;4.80;;;3.63;;
79330;SDS011;68797;49.782;19.054;2023-09-30T10:39:14;4.82;;;3.63;;
79330;SDS011;68797;49.782;19.054;2023-09-30T10:49:48;6.13;;;3.92;;
79330;SDS011;68797;49.782;19.054;2023-09-30T10:52:22;6.53;;;4.20;;
79330;SDS011;68797;49.782;19.054;2023-09-30T10:54:49;5.82;;;4.32;;
79330;SDS011;68797;49.782;19.054;2023-09-30T10:57:28;7.70;;;5.25;;
79330;SDS011;68797;49.782;19.054;2023-09-30T11:00:12;6.10;;;4.43;;
79330;SDS011;68797;49.782;19.054;2023-09-30T11:02:50;5.18;;;4.28;;
79330;SDS011;68797;49.782;19.054;2023-09-30T11:05:18;5.85;;;4.20;;
79330;SDS011;68797;49.782;19.054;2023-09-30T11:07:48;5.78;;;4.10;;
79330;SDS011;68797;49.782;19.054;2023-09-30T11:10:26;5.40;;;4.03;;
79330;SDS011;68797;49.782;19.054;2023-09-30T11:12:54;5.68;;;3.92;;
79330;SDS011;68797;49.782;19.054;2023-09-30T11:15:23;6.05;;;3.67;;
79330;SDS011;68797;49.782;19.054;2023-09-30T11:17:51;6.18;;;4.47;;
79330;SDS011;68797;49.782;19.054;2023-09-30T11:20:19;5.30;;;3.90;;
79330;SDS011;68797;49.782;19.054;2023-09-30T11:22:48;5.70;;;4.20;;
79330;SDS011;68797;49.782;19.054;2023-09-30T11:30:11;5.20;;;3.03;;
79330;SDS011;68797;49.782;19.054;2023-09-30T11:32:58;4.38;;;3.20;;
79330;SDS011;68797;49.782;19.054;2023-09-30T11:35:30;4.78;;;3.65;;
79330;SDS011;68797;49.782;19.054;2023-09-30T11:37:56;6.05;;;4.00;;
79330;SDS011;68797;49.782;19.054;2023-09-30T11:40:28;7.43;;;4.00;;
79330;SDS011;68797;49.782;19.054;2023-09-30T11:44:02;4.35;;;3.30;;
79330;SDS011;68797;49.782;19.054;2023-09-30T11:47:33;5.10;;;3.55;;
79330;SDS011;68797;49.782;19.054;2023-09-30T11:50:47;4.95;;;3.85;;
79330;SDS011;68797;49.782;19.054;2023-09-30T11:58:00;6.15;;;4.60;;
79330;SDS011;68797;49.782;19.054;2023-09-30T12:00:42;9.00;;;5.97;;
79330;SDS011;68797;49.782;19.054;2023-09-30T12:03:09;8.50;;;5.40;;
79330;SDS011;68797;49.782;19.054;2023-09-30T12:05:44;8.35;;;5.78;;
79330;SDS011;68797;49.782;19.054;2023-09-30T12:17:09;9.75;;;6.30;;
79330;SDS011;68797;49.782;19.054;2023-09-30T12:20:02;8.75;;;6.20;;
79330;SDS011;68797;49.782;19.054;2023-09-30T12:22:50;9.13;;;5.43;;
79330;SDS011;68797;49.782;19.054;2023-09-30T12:25:56;10.88;;;6.07;;
79330;SDS011;68797;49.782;19.054;2023-09-30T12:29:05;8.75;;;5.40;;
79330;SDS011;68797;49.782;19.054;2023-09-30T12:31:33;8.45;;;5.75;;
79330;SDS011;68797;49.782;19.054;2023-09-30T12:34:00;10.63;;;6.28;;
79330;SDS011;68797;49.782;19.054;2023-09-30T12:44:28;10.52;;;6.28;;
79330;SDS011;68797;49.782;19.054;2023-09-30T12:47:37;10.95;;;6.60;;
79330;SDS011;68797;49.782;19.054;2023-09-30T12:50:30;11.50;;;7.53;;
79330;SDS011;68797;49.782;19.054;2023-09-30T12:53:50;10.73;;;6.10;;
79330;SDS011;68797;49.782;19.054;2023-09-30T12:56:19;13.20;;;6.65;;
79330;SDS011;68797;49.782;19.054;2023-09-30T12:58:46;13.73;;;6.30;;
79330;SDS011;68797;49.782;19.054;2023-09-30T13:01:18;7.57;;;5.13;;
79330;SDS011;68797;49.782;19.054;2023-09-30T13:03:44;11.93;;;6.78;;
79330;SDS011;68797;49.782;19.054;2023-09-30T13:06:12;14.07;;;6.68;;
79330;SDS011;68797;49.782;19.054;2023-09-30T13:08:43;11.48;;;6.57;;
79330;SDS011;68797;49.782;19.054;2023-09-30T13:11:10;9.95;;;6.65;;
79330;SDS011;68797;49.782;19.054;2023-09-30T13:13:39;10.98;;;5.75;;
79330;SDS011;68797;49.782;19.054;2023-09-30T13:16:09;9.60;;;7.00;;
79330;SDS011;68797;49.782;19.054;2023-09-30T13:18:39;11.60;;;5.95;;
79330;SDS011;68797;49.782;19.054;2023-09-30T13:21:06;10.57;;;6.43;;
79330;SDS011;68797;49.782;19.054;2023-09-30T13:23:33;9.95;;;5.80;;
79330;SDS011;68797;49.782;19.054;2023-09-30T13:26:00;11.25;;;7.20;;
79330;SDS011;68797;49.782;19.054;2023-09-30T13:28:32;13.30;;;7.60;;
79330;SDS011;68797;49.782;19.054;2023-09-30T15:06:59;17.20;;;7.70;;
79330;SDS011;68797;49.782;19.054;2023-09-30T15:09:29;13.00;;;8.45;;
79330;SDS011;68797;49.782;19.054;2023-09-30T15:11:56;12.68;;;7.63;;
79330;SDS011;68797;49.782;19.054;2023-09-30T15:14:25;11.05;;;7.35;;
79330;SDS011;68797;49.782;19.054;2023-09-30T15:16:52;12.30;;;7.50;;
79330;SDS011;68797;49.782;19.054;2023-09-30T15:19:21;12.95;;;8.20;;
79330;SDS011;68797;49.782;19.054;2023-09-30T15:21:50;11.90;;;7.05;;
79330;SDS011;68797;49.782;19.054;2023-09-30T15:24:20;15.93;;;8.40;;
79330;SDS011;68797;49.782;19.054;2023-09-30T15:26:49;12.98;;;6.88;;
79330;SDS011;68797;49.782;19.054;2023-09-30T15:29:18;13.63;;;7.18;;
79330;SDS011;68797;49.782;19.054;2023-09-30T15:31:47;10.07;;;6.47;;
79330;SDS011;68797;49.782;19.054;2023-09-30T15:34:16;13.73;;;6.95;;
79330;SDS011;68797;49.782;19.054;2023-09-30T15:36:47;10.48;;;6.03;;
79330;SDS011;68797;49.782;19.054;2023-09-30T15:39:17;13.02;;;6.82;;
79330;SDS011;68797;49.782;19.054;2023-09-30T15:41:46;13.80;;;5.80;;
79330;SDS011;68797;49.782;19.054;2023-09-30T15:44:16;8.93;;;6.03;;
79330;SDS011;68797;49.782;19.054;2023-09-30T15:46:44;10.48;;;6.22;;
79330;SDS011;68797;49.782;19.054;2023-09-30T15:49:13;9.85;;;5.75;;
79330;SDS011;68797;49.782;19.054;2023-09-30T15:51:41;11.80;;;6.20;;
79330;SDS011;68797;49.782;19.054;2023-09-30T15:54:34;17.35;;;6.53;;
79330;SDS011;68797;49.782;19.054;2023-09-30T16:17:04;11.82;;;5.50;;
79330;SDS011;68797;49.782;19.054;2023-09-30T16:19:50;9.90;;;5.38;;
79330;SDS011;68797;49.782;19.054;2023-09-30T16:22:41;8.98;;;5.60;;
79330;SDS011;68797;49.782;19.054;2023-09-30T16:25:10;8.45;;;5.20;;
79330;SDS011;68797;49.782;19.054;2023-09-30T16:27:39;9.85;;;4.93;;
79330;SDS011;68797;49.782;19.054;2023-09-30T16:30:24;10.93;;;5.07;;
79330;SDS011;68797;49.782;19.054;2023-09-30T16:33:10;16.73;;;6.30;;
79330;SDS011;68797;49.782;19.054;2023-09-30T16:35:50;8.10;;;5.28;;
79330;SDS011;68797;49.782;19.054;2023-09-30T16:38:43;8.48;;;4.47;;
79330;SDS011;68797;49.782;19.054;2023-09-30T16:41:16;7.95;;;5.05;;
79330;SDS011;68797;49.782;19.054;2023-09-30T16:43:45;11.55;;;5.40;;
79330;SDS011;68797;49.782;19.054;2023-09-30T16:46:12;13.07;;;6.60;;
79330;SDS011;68797;49.782;19.054;2023-09-30T16:48:39;9.00;;;5.63;;
79330;SDS011;68797;49.782;19.054;2023-09-30T16:51:08;9.70;;;5.57;;
79330;SDS011;68797;49.782;19.054;2023-09-30T16:53:36;11.77;;;6.05;;
79330;SDS011;68797;49.782;19.054;2023-09-30T16:56:04;19.67;;;8.02;;
79330;SDS011;68797;49.782;19.054;2023-09-30T16:58:31;14.35;;;7.95;;
79330;SDS011;68797;49.782;19.054;2023-09-30T17:03:26;14.60;;;5.97;;
79330;SDS011;68797;49.782;19.054;2023-09-30T17:05:53;15.00;;;6.30;;
79330;SDS011;68797;49.782;19.054;2023-09-30T17:08:20;9.50;;;5.07;;
79330;SDS011;68797;49.782;19.054;2023-09-30T17:10:47;11.88;;;5.13;;
79330;SDS011;68797;49.782;19.054;2023-09-30T17:13:16;9.45;;;4.97;;
79330;SDS011;68797;49.782;19.054;2023-09-30T17:15:44;11.50;;;4.95;;
79330;SDS011;68797;49.782;19.054;2023-09-30T17:18:13;11.75;;;4.70;;
79330;SDS011;68797;49.782;19.054;2023-09-30T17:20:44;6.80;;;4.43;;
79330;SDS011;68797;49.782;19.054;2023-09-30T17:23:12;7.22;;;4.78;;
79330;SDS011;68797;49.782;19.054;2023-09-30T17:25:45;11.45;;;4.88;;
79330;SDS011;68797;49.782;19.054;2023-09-30T17:28:11;10.88;;;5.30;;
79330;SDS011;68797;49.782;19.054;2023-09-30T17:30:39;8.80;;;4.90;;
79330;SDS011;68797;49.782;19.054;2023-09-30T17:33:06;10.25;;;4.78;;
79330;SDS011;68797;49.782;19.054;2023-09-30T17:35:37;14.20;;;4.95;;
79330;SDS011;68797;49.782;19.054;2023-09-30T18:21:15;10.95;;;3.90;;
79330;SDS011;68797;49.782;19.054;2023-09-30T18:24:56;13.40;;;4.60;;
79330;SDS011;68797;49.782;19.054;2023-09-30T18:38:31;10.90;;;4.65;;